EPGD/GDN METAR and TAF weather

Enter ICAO airport designator
Station Type Date Time Source
EPGD METAR 2019/02/23 16:30 UTC NOAA

EPGD 231630Z 26008KT 9999 BKN033 00/M11 Q1039 R11/190095


Station Type Date Time Source
EPGD Decoded METAR 2019/02/23 16:30 UTC NOAA

Gdansk-Rebiechowo, Poland (EPGD) 54-23N 018-28E 138M
Feb 23, 2019 - 11:30 AM EST / 2019.02.23 1630 UTC
Wind: from the W (260 degrees) at 9 MPH (8 KT):0
Visibility: greater than 7 mile(s):0
Sky conditions: mostly cloudy
Temperature: 32 F (0 C)
Windchill: 24 F (-4 C):1
Dew Point: 12 F (-11 C)
Relative Humidity: 43%
Pressure (altimeter): 30.68 in. Hg (1039 hPa)
ob: EPGD 231630Z 26008KT 9999 BKN033 00/M11 Q1039 R11/190095
cycle: 16

Station Type Date Time Source
EPGD TAF 2019/02/23 12:33 UTC NOAA

TAF TAF EPGD 231130Z 2312/2412 24010KT 9999 BKN030


Example: see airport list